Terminal Aerodrome Forecast
Issued by NWS North Platte, NE

Home | Current Version | Previous Version | Text Only | Print | Product List | Glossary On
Versions: 1 2 3 4 5 6 7 8 9 10 11 12 13 14 15
000
FTUS43 KLBF 250500
TAFLBF
TAF
KLBF 250520Z 2506/2606 VRB06KT P6SM SCT250
     FM251400 34014G21KT P6SM FEW250
     FM251800 01012KT P6SM SCT250
     FM260000 04005KT P6SM SCT150 BKN250=

USA.gov is the U.S. government's official web portal to all federal, state and local government web resources and services.